Time;durP1;ratioP1;P1;durP2;ratioP2;P2;SDS_P1;SDS_P2;PMS_P1;PMS_P2;Temp;Humidity;BMP_temperature;BMP_pressure;BME280_temperature;BME280_humidity;BME280_pressure;Samples;Min_cycle;Max_cycle;Signal;HPM_P1;HPM_P2
2021/01/18 00:01:30;;;;;;;9.60;4.22;;;-3.10;99.90;;;;;;5045638;28;20705;-72
2021/01/18 00:03:56;;;;;;;9.43;4.15;;;-3.10;99.90;;;;;;5020208;28;20209;-72
2021/01/18 00:06:25;;;;;;;12.55;4.68;;;-3.10;99.90;;;;;;5050086;28;20270;-72
2021/01/18 00:08:51;;;;;;;8.40;3.92;;;-3.10;99.90;;;;;;5048803;28;20189;-72
2021/01/18 00:11:18;;;;;;;7.45;4.18;;;-3.10;99.90;;;;;;5047394;28;20228;-72
2021/01/18 00:13:45;;;;;;;8.00;3.83;;;-3.10;99.90;;;;;;5047967;28;20188;-72
2021/01/18 00:16:22;;;;;;;8.13;3.70;;;-3.10;99.90;;;;;;5048315;28;20193;-72
2021/01/18 00:18:48;;;;;;;9.02;3.63;;;-3.10;99.90;;;;;;5031138;28;20228;-72
2021/01/18 00:21:14;;;;;;;8.70;3.92;;;-3.20;99.90;;;;;;5048244;28;20247;-72
2021/01/18 00:23:41;;;;;;;9.45;3.95;;;-3.20;99.90;;;;;;5047346;28;20198;-72
2021/01/18 00:26:07;;;;;;;6.53;3.70;;;-3.20;99.90;;;;;;5046264;28;20205;-72
2021/01/18 00:28:34;;;;;;;7.65;3.75;;;-3.10;99.90;;;;;;5047310;28;20213;-72
2021/01/18 00:31:04;;;;;;;7.45;3.78;;;-3.10;99.90;;;;;;5050481;28;20196;-71
2021/01/18 00:33:31;;;;;;;7.28;3.50;;;-3.10;99.90;;;;;;5047290;28;20189;-72
2021/01/18 00:35:57;;;;;;;7.45;3.65;;;-3.10;99.90;;;;;;5045439;28;21036;-72
2021/01/18 00:38:22;;;;;;;9.27;3.83;;;-3.10;99.90;;;;;;5049599;28;20196;-72
2021/01/18 00:40:48;;;;;;;7.25;3.42;;;-3.10;99.90;;;;;;5032230;28;20197;-72
2021/01/18 00:43:13;;;;;;;6.38;3.47;;;-3.10;99.90;;;;;;5050095;28;20263;-72
2021/01/18 00:45:39;;;;;;;6.88;3.47;;;-3.10;99.90;;;;;;5020942;28;20247;-72
2021/01/18 00:48:05;;;;;;;9.77;3.67;;;-3.10;99.90;;;;;;5044431;28;20201;-72
2021/01/18 00:50:31;;;;;;;8.10;3.40;;;-3.10;99.90;;;;;;5049131;28;20219;-72
2021/01/18 00:52:59;;;;;;;7.00;3.05;;;-3.10;99.90;;;;;;5046860;28;20197;-72
2021/01/18 00:55:25;;;;;;;7.10;3.13;;;-3.10;99.90;;;;;;5029765;28;21209;-72
2021/01/18 00:57:51;;;;;;;8.77;3.53;;;-3.10;99.90;;;;;;5029450;28;20201;-72
2021/01/18 01:00:25;;;;;;;6.65;3.63;;;-3.10;99.90;;;;;;5044493;28;20201;-72
2021/01/18 01:02:52;;;;;;;6.55;3.20;;;-3.10;99.90;;;;;;5046954;28;20255;-72
2021/01/18 01:05:29;;;;;;;7.03;3.70;;;-3.10;99.90;;;;;;5010829;28;20226;-72
2021/01/18 01:07:57;;;;;;;4.97;3.28;;;-3.10;99.90;;;;;;4996737;28;20211;-72
2021/01/18 01:10:24;;;;;;;7.93;3.33;;;-3.10;99.90;;;;;;4997767;28;20511;-72
2021/01/18 01:12:54;;;;;;;6.00;3.10;;;-3.10;99.90;;;;;;4993050;28;20221;-72
2021/01/18 01:15:20;;;;;;;7.50;3.28;;;-3.10;99.90;;;;;;4998352;28;20203;-72
2021/01/18 01:17:46;;;;;;;6.95;3.42;;;-3.10;99.90;;;;;;4995931;28;20210;-72
2021/01/18 01:20:13;;;;;;;7.03;3.60;;;-3.00;99.90;;;;;;4997272;28;20203;-72
2021/01/18 01:22:40;;;;;;;8.45;3.40;;;-3.00;99.90;;;;;;4998672;28;20286;-72
2021/01/18 01:25:07;;;;;;;8.68;3.65;;;-3.00;99.90;;;;;;4998392;28;20674;-72
2021/01/18 01:27:32;;;;;;;7.45;3.60;;;-3.00;99.90;;;;;;4998576;28;20735;-72
2021/01/18 01:29:58;;;;;;;7.32;3.17;;;-3.00;99.90;;;;;;4997380;28;20286;-72
2021/01/18 01:32:24;;;;;;;5.93;3.28;;;-3.00;99.90;;;;;;4991777;28;20227;-72
2021/01/18 01:34:50;;;;;;;9.00;3.65;;;-3.00;99.90;;;;;;4998157;28;20665;-72
2021/01/18 01:37:15;;;;;;;5.90;3.15;;;-3.00;99.90;;;;;;4994790;28;20218;-72
2021/01/18 01:39:41;;;;;;;7.03;3.50;;;-3.00;99.90;;;;;;4997109;28;20205;-72
2021/01/18 01:42:20;;;;;;;7.00;3.47;;;-3.00;99.90;;;;;;4997577;28;20298;-72
2021/01/18 01:44:46;;;;;;;7.18;3.60;;;-3.00;99.90;;;;;;4991272;28;20697;-72
2021/01/18 01:47:34;;;;;;;7.15;3.40;;;-3.00;99.90;;;;;;4993756;28;20285;-72
2021/01/18 01:50:03;;;;;;;6.50;3.55;;;-3.00;99.90;;;;;;4992633;28;20203;-72
2021/01/18 01:52:30;;;;;;;6.57;3.25;;;-3.00;99.90;;;;;;4997562;28;20686;-72
2021/01/18 01:54:59;;;;;;;7.47;3.60;;;-3.00;99.90;;;;;;4992371;28;20195;-72
2021/01/18 01:57:26;;;;;;;7.65;3.72;;;-3.00;99.90;;;;;;4991064;28;20205;-72
2021/01/18 01:59:52;;;;;;;6.82;3.70;;;-3.00;99.90;;;;;;4993322;28;20234;-71
2021/01/18 02:02:18;;;;;;;7.63;3.90;;;-3.00;99.90;;;;;;4992387;28;20243;-71
2021/01/18 02:04:47;;;;;;;7.25;3.15;;;-2.90;99.90;;;;;;5008862;28;20232;-72
2021/01/18 02:07:39;;;;;;;7.90;3.70;;;-2.90;99.90;;;;;;5026457;28;20305;-72
2021/01/18 02:10:06;;;;;;;10.88;4.80;;;-2.90;99.90;;;;;;5022327;28;20228;-72
2021/01/18 02:12:31;;;;;;;8.30;4.05;;;-2.80;99.90;;;;;;5023323;28;20281;-72
2021/01/18 02:15:00;;;;;;;9.30;3.92;;;-2.80;99.90;;;;;;5049895;28;20201;-71
2021/01/18 02:17:44;;;;;;;8.98;4.28;;;-2.80;99.90;;;;;;5040393;28;20243;-71
2021/01/18 02:20:32;;;;;;;9.23;4.20;;;-2.80;99.90;;;;;;5047660;28;20582;-71
2021/01/18 02:23:26;;;;;;;10.30;4.43;;;-2.80;99.90;;;;;;5018954;28;20216;-71
2021/01/18 02:25:57;;;;;;;8.73;4.78;;;-2.70;99.90;;;;;;5023072;28;20260;-72
2021/01/18 02:28:31;;;;;;;16.90;6.15;;;-2.70;99.90;;;;;;5047482;28;20185;-72
2021/01/18 02:31:22;;;;;;;10.27;4.78;;;-2.70;99.90;;;;;;5047534;28;20204;-72
2021/01/18 02:33:59;;;;;;;15.93;5.38;;;-2.60;99.90;;;;;;5047944;28;20786;-72
2021/01/18 02:36:38;;;;;;;10.70;4.82;;;-2.60;99.90;;;;;;5045100;28;20247;-72
2021/01/18 02:39:28;;;;;;;11.50;4.80;;;-2.60;99.90;;;;;;5028371;28;20208;-72
2021/01/18 02:41:58;;;;;;;14.02;5.10;;;-2.60;99.90;;;;;;5045470;28;21013;-72
2021/01/18 02:44:27;;;;;;;12.43;5.57;;;-2.50;99.90;;;;;;5046107;28;20676;-71
2021/01/18 02:46:53;;;;;;;18.65;6.10;;;-2.60;99.90;;;;;;5043416;28;20737;-71
2021/01/18 02:49:21;;;;;;;16.05;5.82;;;-2.50;99.90;;;;;;5043483;28;20882;-72
2021/01/18 02:51:54;;;;;;;16.40;6.57;;;-2.50;99.90;;;;;;5049709;28;20279;-72
2021/01/18 02:54:20;;;;;;;14.23;6.35;;;-2.40;99.90;;;;;;5046250;28;20204;-72
2021/01/18 02:56:51;;;;;;;14.63;6.05;;;-2.40;99.90;;;;;;5045767;28;20198;-72
2021/01/18 02:59:17;;;;;;;14.32;6.15;;;-2.40;99.90;;;;;;5048543;28;20228;-72
2021/01/18 03:02:01;;;;;;;17.60;6.88;;;-2.30;99.90;;;;;;5027322;28;20194;-72
2021/01/18 03:04:40;;;;;;;14.20;6.30;;;-2.30;99.90;;;;;;5037302;28;20212;-72
2021/01/18 03:07:30;;;;;;;14.68;6.25;;;-2.20;99.90;;;;;;5034961;28;20217;-72
2021/01/18 03:10:04;;;;;;;17.40;6.57;;;-2.20;99.90;;;;;;5034131;28;20978;-72
2021/01/18 03:12:41;;;;;;;14.55;5.80;;;-2.20;99.90;;;;;;5032469;28;20250;-72
2021/01/18 03:15:13;;;;;;;16.70;6.20;;;-2.20;99.90;;;;;;5037261;28;20198;-71
2021/01/18 03:17:40;;;;;;;11.70;5.63;;;-2.20;99.90;;;;;;5033994;28;20214;-72
2021/01/18 03:20:07;;;;;;;18.33;6.45;;;-2.20;99.90;;;;;;5032087;28;20226;-72
2021/01/18 03:22:33;;;;;;;16.80;6.40;;;-2.20;99.90;;;;;;5021613;28;20572;-71
2021/01/18 03:25:00;;;;;;;13.65;5.65;;;-2.20;99.90;;;;;;5037728;28;20313;-72
2021/01/18 03:27:26;;;;;;;16.58;6.45;;;-2.20;99.90;;;;;;5033623;28;20408;-72
2021/01/18 03:29:52;;;;;;;13.60;6.45;;;-2.20;99.90;;;;;;5035878;28;20668;-72
2021/01/18 03:32:18;;;;;;;16.77;6.75;;;-2.20;99.90;;;;;;5037384;28;20206;-71
2021/01/18 03:34:43;;;;;;;15.57;6.68;;;-2.10;99.90;;;;;;5036851;28;20196;-71
2021/01/18 03:37:09;;;;;;;17.02;6.15;;;-2.10;99.90;;;;;;5032424;28;20209;-71
2021/01/18 03:39:35;;;;;;;14.82;6.05;;;-2.10;99.90;;;;;;5016278;28;20198;-71
2021/01/18 03:42:00;;;;;;;13.00;6.72;;;-2.00;99.90;;;;;;5037601;28;20759;-72
2021/01/18 03:44:26;;;;;;;17.33;6.60;;;-2.00;99.90;;;;;;5037387;28;20206;-72
2021/01/18 03:46:52;;;;;;;13.13;6.30;;;-2.00;99.90;;;;;;5033051;28;20263;-71
2021/01/18 03:49:17;;;;;;;16.17;6.78;;;-2.00;99.90;;;;;;5036167;28;20321;-71
2021/01/18 03:51:43;;;;;;;19.65;7.40;;;-1.90;99.90;;;;;;5036202;28;20549;-72
2021/01/18 03:54:09;;;;;;;18.40;7.60;;;-1.90;99.90;;;;;;5021893;28;20243;-72
2021/01/18 03:56:41;;;;;;;18.02;6.53;;;-1.90;99.90;;;;;;5025006;28;20251;-71
2021/01/18 03:59:07;;;;;;;18.33;7.70;;;-1.80;99.90;;;;;;5036571;28;20691;-71
2021/01/18 04:01:37;;;;;;;21.08;7.38;;;-1.70;99.90;;;;;;5033184;28;20205;-71
2021/01/18 04:04:04;;;;;;;18.30;6.80;;;-1.70;99.90;;;;;;5034283;28;20202;-71
2021/01/18 04:06:39;;;;;;;16.25;6.60;;;-1.60;99.90;;;;;;5033817;28;20234;-71
2021/01/18 04:09:05;;;;;;;21.52;7.57;;;-1.60;99.90;;;;;;5034174;28;20193;-71
2021/01/18 04:11:32;;;;;;;15.15;6.28;;;-1.50;99.90;;;;;;5031858;28;20219;-71
2021/01/18 04:13:57;;;;;;;12.90;6.35;;;-1.50;99.90;;;;;;5032199;28;20668;-71
2021/01/18 04:16:23;;;;;;;18.13;7.25;;;-1.50;99.90;;;;;;5036617;28;20212;-71
2021/01/18 04:18:49;;;;;;;17.58;6.85;;;-1.50;99.90;;;;;;5035047;28;20278;-72
2021/01/18 04:21:18;;;;;;;15.73;6.57;;;-1.40;99.90;;;;;;5034492;28;20968;-72
2021/01/18 04:23:44;;;;;;;17.77;7.07;;;-1.40;99.90;;;;;;5034443;28;20224;-71
2021/01/18 04:26:11;;;;;;;14.43;6.65;;;-1.40;99.90;;;;;;5022458;28;20300;-71
2021/01/18 04:28:38;;;;;;;16.98;7.35;;;-1.40;99.90;;;;;;5036515;28;20202;-71
2021/01/18 04:31:04;;;;;;;15.18;7.20;;;-1.40;99.90;;;;;;5035010;28;20540;-71
2021/01/18 04:33:30;;;;;;;16.40;6.75;;;-1.40;99.90;;;;;;5036264;28;20209;-71
2021/01/18 04:35:56;;;;;;;15.60;6.97;;;-1.40;99.90;;;;;;5032979;28;20563;-71
2021/01/18 04:38:23;;;;;;;13.05;6.45;;;-1.30;99.90;;;;;;5036358;28;20256;-71
2021/01/18 04:40:49;;;;;;;17.67;6.65;;;-1.40;99.90;;;;;;5014981;28;20190;-71
2021/01/18 04:43:16;;;;;;;10.85;5.68;;;-1.30;99.90;;;;;;5034319;28;20221;-72
2021/01/18 04:45:42;;;;;;;15.73;6.05;;;-1.30;99.90;;;;;;5033930;28;20201;-71
2021/01/18 04:48:09;;;;;;;16.00;6.03;;;-1.30;99.90;;;;;;5022965;28;20216;-71
2021/01/18 04:50:34;;;;;;;11.77;4.70;;;-1.30;99.90;;;;;;5033666;28;20233;-71
2021/01/18 04:53:06;;;;;;;11.07;5.38;;;-1.30;99.90;;;;;;5028815;28;20610;-71
2021/01/18 04:55:42;;;;;;;11.93;4.85;;;-1.30;99.90;;;;;;5035194;28;20233;-72
2021/01/18 04:58:12;;;;;;;11.10;5.63;;;-1.30;99.90;;;;;;5036149;28;20208;-72
2021/01/18 05:00:45;;;;;;;12.65;5.47;;;-1.30;99.90;;;;;;5010303;28;20209;-71
2021/01/18 05:03:12;;;;;;;12.23;4.97;;;-1.20;99.90;;;;;;5033654;28;20560;-71
2021/01/18 05:05:52;;;;;;;11.10;4.75;;;-1.20;99.90;;;;;;5029563;28;20274;-71
2021/01/18 05:08:37;;;;;;;10.95;4.88;;;-1.20;99.90;;;;;;5037306;28;20216;-71
2021/01/18 05:11:03;;;;;;;11.50;5.28;;;-1.20;99.90;;;;;;5030150;28;20198;-72
2021/01/18 05:13:30;;;;;;;16.38;4.88;;;-1.20;99.90;;;;;;5034099;28;20782;-72
2021/01/18 05:15:59;;;;;;;9.48;4.70;;;-1.10;99.90;;;;;;5030503;28;20196;-71
2021/01/18 05:18:32;;;;;;;9.07;4.63;;;-1.10;99.90;;;;;;5014027;28;20560;-71
2021/01/18 05:21:02;;;;;;;9.88;4.63;;;-1.10;99.90;;;;;;5031321;28;20222;-71
2021/01/18 05:23:28;;;;;;;13.25;4.97;;;-1.10;99.90;;;;;;5031973;28;20292;-72
2021/01/18 05:26:22;;;;;;;9.93;4.40;;;-1.10;99.90;;;;;;5028523;28;20186;-71
2021/01/18 05:28:49;;;;;;;9.75;4.53;;;-1.10;99.90;;;;;;5031143;28;20197;-72
2021/01/18 05:31:27;;;;;;;9.00;4.90;;;-1.10;99.90;;;;;;5036573;28;20279;-72
2021/01/18 05:34:10;;;;;;;10.00;4.55;;;-1.10;99.90;;;;;;5030151;28;20747;-71
2021/01/18 05:36:37;;;;;;;9.55;4.50;;;-1.10;99.90;;;;;;5033813;28;20205;-72
2021/01/18 05:39:10;;;;;;;10.93;4.60;;;-1.10;99.90;;;;;;5031587;28;20213;-71
2021/01/18 05:41:37;;;;;;;12.23;4.25;;;-1.10;99.90;;;;;;5031066;28;20266;-72
2021/01/18 05:44:04;;;;;;;10.20;5.18;;;-1.10;99.90;;;;;;5022277;28;20792;-72
2021/01/18 05:46:32;;;;;;;7.40;4.43;;;-1.10;99.90;;;;;;5040099;28;20193;-72
2021/01/18 05:49:06;;;;;;;9.43;4.78;;;-1.20;99.90;;;;;;5037374;28;20221;-72
2021/01/18 05:51:33;;;;;;;11.07;5.53;;;-1.20;99.90;;;;;;5035308;28;20637;-72
2021/01/18 05:54:01;;;;;;;13.35;5.10;;;-1.20;99.90;;;;;;5038396;28;20671;-72
2021/01/18 05:56:38;;;;;;;10.20;4.90;;;-1.20;99.90;;;;;;5042564;28;20205;-72
2021/01/18 05:59:15;;;;;;;11.88;5.35;;;-1.20;99.90;;;;;;5041280;28;20211;-72
2021/01/18 06:01:41;;;;;;;11.88;5.00;;;-1.20;99.90;;;;;;5024751;28;20209;-72
2021/01/18 06:04:11;;;;;;;12.38;5.78;;;-1.20;99.90;;;;;;5025589;28;20213;-72
2021/01/18 06:06:37;;;;;;;11.70;5.65;;;-1.20;99.90;;;;;;5031080;28;20221;-71
2021/01/18 06:09:04;;;;;;;13.20;5.53;;;-1.20;99.90;;;;;;5038234;28;20194;-71
2021/01/18 06:11:30;;;;;;;13.02;5.57;;;-1.20;99.90;;;;;;5036786;28;20202;-71
2021/01/18 06:14:04;;;;;;;11.10;4.90;;;-1.30;99.90;;;;;;5034759;28;20200;-71
2021/01/18 06:16:31;;;;;;;13.32;5.80;;;-1.20;99.90;;;;;;5034818;28;20232;-71
2021/01/18 06:19:04;;;;;;;13.02;5.20;;;-1.20;99.90;;;;;;5032633;28;20202;-70
2021/01/18 06:21:37;;;;;;;9.88;5.10;;;-1.30;99.90;;;;;;5018994;28;20205;-71
2021/01/18 06:24:26;;;;;;;16.38;5.57;;;-1.20;99.90;;;;;;5018136;28;20313;-70
2021/01/18 06:26:51;;;;;;;11.05;4.75;;;-1.20;99.90;;;;;;5036617;28;20209;-70
2021/01/18 06:29:38;;;;;;;9.80;5.25;;;-1.20;99.90;;;;;;5030520;28;20206;-70
2021/01/18 06:32:06;;;;;;;12.82;5.28;;;-1.20;99.90;;;;;;5020046;28;20190;-71
2021/01/18 06:34:32;;;;;;;12.98;5.70;;;-1.20;99.90;;;;;;5028777;28;20267;-70
2021/01/18 06:36:58;;;;;;;11.15;4.93;;;-1.20;99.90;;;;;;5034107;28;20214;-71
2021/01/18 06:39:28;;;;;;;12.35;5.78;;;-1.30;99.90;;;;;;5024313;28;20225;-71
2021/01/18 06:41:57;;;;;;;16.15;5.97;;;-1.20;99.90;;;;;;5019181;28;20669;-72
2021/01/18 06:44:36;;;;;;;11.63;5.18;;;-1.30;99.90;;;;;;5033829;28;20255;-72
2021/01/18 06:47:28;;;;;;;11.40;5.40;;;-1.30;99.90;;;;;;5035234;28;20209;-71
2021/01/18 06:49:57;;;;;;;10.88;5.18;;;-1.30;99.90;;;;;;5040480;28;20197;-71
2021/01/18 06:52:26;;;;;;;12.32;5.95;;;-1.20;99.90;;;;;;5039437;28;20602;-71
2021/01/18 06:54:59;;;;;;;14.35;5.57;;;-1.20;99.90;;;;;;5033913;28;20266;-71
2021/01/18 06:57:39;;;;;;;11.23;5.13;;;-1.20;99.90;;;;;;5045106;28;20698;-70
2021/01/18 07:00:05;;;;;;;14.77;5.40;;;-1.20;99.90;;;;;;5037741;28;20208;-71
2021/01/18 07:02:37;;;;;;;11.15;4.95;;;-1.20;99.90;;;;;;5019227;28;20233;-71
2021/01/18 07:05:10;;;;;;;11.43;5.15;;;-1.20;99.90;;;;;;5021284;28;20229;-70
2021/01/18 07:07:38;;;;;;;13.07;5.15;;;-1.20;99.90;;;;;;5019987;28;20214;-71
2021/01/18 07:10:09;;;;;;;9.93;4.97;;;-1.20;99.90;;;;;;5015989;28;20206;-71
2021/01/18 07:12:36;;;;;;;13.07;4.72;;;-1.20;99.90;;;;;;5012285;28;20973;-72
2021/01/18 07:15:08;;;;;;;11.45;4.75;;;-1.20;99.90;;;;;;5013904;28;20218;-71
2021/01/18 07:17:54;;;;;;;9.82;4.65;;;-1.20;99.90;;;;;;5011674;28;20290;-71
2021/01/18 07:20:22;;;;;;;10.27;4.93;;;-1.30;99.90;;;;;;5013728;28;20210;-72
2021/01/18 07:22:56;;;;;;;9.98;4.78;;;-1.20;99.90;;;;;;5010926;28;20249;-72
2021/01/18 07:25:23;;;;;;;8.45;4.43;;;-1.30;99.90;;;;;;5014823;28;20205;-72
2021/01/18 07:27:52;;;;;;;7.90;4.55;;;-1.30;99.90;;;;;;4993054;28;20210;-72
2021/01/18 07:30:18;;;;;;;7.95;4.15;;;-1.20;99.90;;;;;;5009983;28;20255;-71
2021/01/18 07:32:44;;;;;;;9.73;4.13;;;-1.20;99.90;;;;;;5015029;28;20891;-71
2021/01/18 07:35:12;;;;;;;13.63;4.38;;;-1.20;99.90;;;;;;5019129;28;20273;-71
2021/01/18 07:37:37;;;;;;;9.35;4.50;;;-1.20;99.90;;;;;;5021587;28;20204;-72
2021/01/18 07:40:12;;;;;;;9.70;5.18;;;-1.20;99.90;;;;;;5014329;28;20799;-71
2021/01/18 07:42:39;;;;;;;8.02;4.35;;;-1.20;99.90;;;;;;5020892;28;20205;-71
2021/01/18 07:45:11;;;;;;;7.95;4.22;;;-1.20;99.90;;;;;;5018740;28;20277;-71
2021/01/18 07:48:00;;;;;;;8.20;4.22;;;-1.20;99.90;;;;;;5020801;28;20279;-71
2021/01/18 07:50:30;;;;;;;11.25;4.28;;;-1.20;99.90;;;;;;5018310;28;20212;-72
2021/01/18 07:53:08;;;;;;;9.63;4.22;;;-1.10;99.90;;;;;;5014949;28;20308;-72
2021/01/18 07:55:34;;;;;;;9.25;4.82;;;-1.10;99.90;;;;;;5017857;28;20193;-72
2021/01/18 07:58:22;;;;;;;10.13;4.93;;;-1.10;99.90;;;;;;5011814;28;20564;-71
2021/01/18 08:00:49;;;;;;;8.98;4.10;;;-1.20;99.90;;;;;;5019593;28;20203;-71
2021/01/18 08:03:18;;;;;;;11.15;4.85;;;-1.20;99.90;;;;;;5013940;28;20209;-71
2021/01/18 08:05:44;;;;;;;8.55;4.70;;;-1.10;99.90;;;;;;5029441;28;20232;-71
2021/01/18 08:08:11;;;;;;;11.02;4.30;;;-1.10;99.90;;;;;;5034074;28;20222;-70
2021/01/18 08:10:57;;;;;;;11.60;5.07;;;-1.10;99.90;;;;;;5039230;28;20276;-71
2021/01/18 08:13:47;;;;;;;14.88;4.65;;;-1.10;99.90;;;;;;5030673;28;20194;-71
2021/01/18 08:16:39;;;;;;;11.43;4.97;;;-1.10;99.90;;;;;;5019016;28;20198;-71
2021/01/18 08:19:14;;;;;;;8.57;4.80;;;-1.00;99.90;;;;;;5031392;28;20189;-71
2021/01/18 08:21:45;;;;;;;9.27;4.07;;;-1.00;99.90;;;;;;5041007;28;20280;-71
2021/01/18 08:24:35;;;;;;;8.20;4.03;;;-1.00;99.90;;;;;;5030825;28;20201;-72
2021/01/18 08:27:03;;;;;;;9.75;4.70;;;-1.00;99.90;;;;;;5041268;28;20232;-71
2021/01/18 08:29:44;;;;;;;9.18;4.78;;;-1.00;99.90;;;;;;5036408;28;20246;-71
2021/01/18 08:32:37;;;;;;;11.45;4.50;;;-0.90;99.90;;;;;;5037577;28;20284;-72
2021/01/18 08:35:18;;;;;;;9.07;4.75;;;-0.90;99.90;;;;;;5034348;28;20201;-71
2021/01/18 08:38:07;;;;;;;9.07;4.78;;;-0.90;99.90;;;;;;5041553;28;20247;-72
2021/01/18 08:40:39;;;;;;;12.00;5.20;;;-0.90;99.90;;;;;;5033534;28;20660;-72
2021/01/18 08:43:05;;;;;;;9.32;4.90;;;-0.90;99.90;;;;;;5032470;28;20193;-72
2021/01/18 08:45:41;;;;;;;11.93;5.53;;;-0.90;99.90;;;;;;5029976;28;20225;-72
2021/01/18 08:48:09;;;;;;;11.60;5.47;;;-0.90;99.90;;;;;;5032502;28;20212;-72
2021/01/18 08:50:39;;;;;;;18.48;5.50;;;-0.90;99.90;;;;;;5037027;28;20224;-71
2021/01/18 08:53:33;;;;;;;10.93;5.40;;;-0.90;99.90;;;;;;5033261;28;20209;-71
2021/01/18 08:56:06;;;;;;;16.58;6.03;;;-0.90;99.90;;;;;;5032785;28;20243;-71
2021/01/18 08:58:58;;;;;;;11.82;5.80;;;-0.80;99.90;;;;;;5033254;28;20190;-72
2021/01/18 09:01:32;;;;;;;11.18;5.07;;;-0.80;99.90;;;;;;5038720;28;20210;-71
2021/01/18 09:04:00;;;;;;;13.95;6.15;;;-0.80;99.90;;;;;;5031640;28;20808;-71
2021/01/18 09:06:26;;;;;;;10.27;5.40;;;-0.90;99.90;;;;;;5032920;28;20229;-72
2021/01/18 09:09:09;;;;;;;14.00;6.22;;;-0.80;99.90;;;;;;5034092;28;20530;-72
2021/01/18 09:11:35;;;;;;;14.13;6.90;;;-0.80;99.90;;;;;;5033737;28;20679;-72
2021/01/18 09:14:01;;;;;;;12.63;6.20;;;-0.80;99.90;;;;;;5036556;28;20190;-71
2021/01/18 09:16:27;;;;;;;17.00;6.57;;;-0.70;99.90;;;;;;5033482;28;20205;-72
2021/01/18 09:18:53;;;;;;;14.23;6.00;;;-0.70;99.90;;;;;;5031545;28;20668;-73
2021/01/18 09:21:19;;;;;;;14.88;6.50;;;-0.60;99.90;;;;;;5030998;28;20197;-72
2021/01/18 09:23:45;;;;;;;13.38;6.75;;;-0.60;99.90;;;;;;5037253;28;20201;-72
2021/01/18 09:26:15;;;;;;;13.90;6.60;;;-0.60;99.90;;;;;;5037764;28;20229;-72
2021/01/18 09:28:51;;;;;;;14.98;7.03;;;-0.60;99.90;;;;;;5034518;28;20269;-71
2021/01/18 09:31:17;;;;;;;12.57;6.53;;;-0.60;99.90;;;;;;5038091;28;20243;-71
2021/01/18 09:33:43;;;;;;;17.48;7.00;;;-0.60;99.90;;;;;;5030664;28;20200;-71
2021/01/18 09:36:13;;;;;;;12.68;6.30;;;-0.60;99.90;;;;;;5010721;28;20326;-71
2021/01/18 09:38:41;;;;;;;13.93;6.95;;;-0.60;99.90;;;;;;5034945;28;20676;-72
2021/01/18 09:41:07;;;;;;;12.95;6.70;;;-0.60;99.90;;;;;;5036974;28;20212;-72
2021/01/18 09:43:33;;;;;;;340.58;101.10;;;-0.60;99.90;;;;;;5029551;28;20206;-71
2021/01/18 09:46:01;;;;;;;29.25;12.98;;;-0.60;99.90;;;;;;5030181;28;20613;-71
2021/01/18 09:48:27;;;;;;;21.55;8.80;;;-0.60;99.90;;;;;;5033492;28;21781;-71
2021/01/18 09:51:06;;;;;;;16.65;7.13;;;-0.60;99.90;;;;;;5039655;28;20193;-71
2021/01/18 09:53:33;;;;;;;20.38;9.38;;;-0.60;99.90;;;;;;5037059;28;20205;-71
2021/01/18 09:56:12;;;;;;;21.65;10.32;;;-0.60;99.90;;;;;;5036482;28;20273;-71
2021/01/18 09:58:55;;;;;;;18.58;8.48;;;-0.60;99.90;;;;;;5033584;28;20535;-71
2021/01/18 10:01:32;;;;;;;19.70;7.45;;;-0.50;99.90;;;;;;5031404;28;20204;-71
2021/01/18 10:04:00;;;;;;;19.88;8.00;;;-0.50;99.90;;;;;;5033815;28;20197;-71
2021/01/18 10:06:31;;;;;;;14.55;7.28;;;-0.50;99.90;;;;;;5034144;28;20259;-71
2021/01/18 10:09:07;;;;;;;16.52;7.60;;;-0.50;99.90;;;;;;5017431;28;20193;-72
2021/01/18 10:11:49;;;;;;;16.45;8.07;;;-0.50;99.90;;;;;;5039167;28;20194;-72
2021/01/18 10:14:20;;;;;;;18.23;8.48;;;-0.50;99.90;;;;;;5017109;28;20707;-71
2021/01/18 10:17:00;;;;;;;17.67;7.78;;;-0.50;99.90;;;;;;5031647;28;20198;-72
2021/01/18 10:19:27;;;;;;;18.60;8.10;;;-0.40;99.90;;;;;;5017713;28;20684;-71
2021/01/18 10:21:54;;;;;;;16.02;7.88;;;-0.40;99.90;;;;;;5021714;28;20267;-72
2021/01/18 10:24:27;;;;;;;15.73;7.60;;;-0.30;99.90;;;;;;5034413;28;20202;-71
2021/01/18 10:27:10;;;;;;;18.17;7.25;;;-0.30;99.90;;;;;;5019595;28;20205;-71
2021/01/18 10:29:38;;;;;;;15.20;7.07;;;-0.20;99.90;;;;;;5030466;28;20523;-72
2021/01/18 10:32:05;;;;;;;17.27;6.95;;;-0.30;99.90;;;;;;5033651;28;20197;-72
2021/01/18 10:34:34;;;;;;;17.60;7.50;;;-0.20;99.90;;;;;;5014741;28;20321;-71
2021/01/18 10:37:17;;;;;;;18.85;8.05;;;-0.20;99.90;;;;;;5036811;28;20649;-72
2021/01/18 10:39:46;;;;;;;19.33;7.80;;;-0.20;99.90;;;;;;5038428;28;20225;-72
2021/01/18 10:42:16;;;;;;;17.80;7.78;;;-0.20;99.90;;;;;;5038875;28;20603;-72
2021/01/18 10:44:49;;;;;;;17.27;7.40;;;-0.10;99.90;;;;;;5040575;28;20213;-71
2021/01/18 10:47:15;;;;;;;21.13;7.57;;;-0.10;99.90;;;;;;5047376;28;20210;-71
2021/01/18 10:49:40;;;;;;;13.48;6.05;;;-0.10;99.90;;;;;;5044797;28;20194;-72
2021/01/18 10:52:11;;;;;;;16.25;7.45;;;0.00;99.90;;;;;;5047752;28;20272;-71
2021/01/18 10:54:38;;;;;;;14.82;6.93;;;0.00;99.90;;;;;;5047428;28;20204;-71
2021/01/18 10:57:24;;;;;;;14.27;7.28;;;0.00;99.90;;;;;;5046109;28;20201;-71
2021/01/18 11:00:13;;;;;;;15.65;7.50;;;0.10;99.90;;;;;;5026722;28;20751;-71
2021/01/18 11:02:41;;;;;;;16.48;7.88;;;0.00;99.90;;;;;;5019410;28;20202;-71
2021/01/18 11:05:08;;;;;;;17.70;7.70;;;0.10;99.90;;;;;;5041983;28;20234;-71
2021/01/18 11:07:35;;;;;;;16.58;7.05;;;0.10;99.90;;;;;;5042952;28;20217;-71
2021/01/18 11:10:03;;;;;;;16.38;7.50;;;0.10;99.90;;;;;;5027282;28;20558;-71
2021/01/18 11:12:35;;;;;;;17.88;7.70;;;0.10;99.90;;;;;;5044026;28;20201;-72
2021/01/18 11:15:03;;;;;;;16.27;8.38;;;0.10;99.90;;;;;;5022967;28;20198;-72
2021/01/18 11:17:30;;;;;;;15.65;7.90;;;0.00;99.90;;;;;;5031889;28;20296;-72
2021/01/18 11:19:56;;;;;;;21.40;8.20;;;0.00;99.90;;;;;;5034231;28;20258;-72
2021/01/18 11:22:22;;;;;;;17.30;7.88;;;0.00;99.90;;;;;;5035027;28;20206;-72
2021/01/18 11:24:48;;;;;;;17.63;7.40;;;0.10;99.90;;;;;;5020366;28;20197;-72
2021/01/18 11:27:15;;;;;;;18.77;7.70;;;0.10;99.90;;;;;;5037032;28;20590;-73
2021/01/18 11:29:41;;;;;;;15.95;7.50;;;0.10;99.90;;;;;;5035391;28;20198;-72
2021/01/18 11:32:06;;;;;;;15.77;8.30;;;0.10;99.90;;;;;;5019094;28;20198;-71
2021/01/18 11:34:35;;;;;;;19.55;8.35;;;0.10;99.90;;;;;;5037439;28;20274;-71
2021/01/18 11:37:05;;;;;;;17.55;8.18;;;0.10;99.90;;;;;;5032876;28;21022;-71
2021/01/18 11:39:31;;;;;;;19.02;7.63;;;0.10;99.90;;;;;;5039831;28;20283;-71
2021/01/18 11:41:59;;;;;;;17.30;7.93;;;0.00;99.90;;;;;;5035909;28;20288;-72
2021/01/18 11:44:25;;;;;;;23.75;8.07;;;0.00;99.90;;;;;;5039378;28;20201;-72
2021/01/18 11:46:59;;;;;;;19.33;7.82;;;0.00;99.90;;;;;;5039858;28;20206;-72
2021/01/18 11:49:25;;;;;;;18.10;8.43;;;0.00;99.90;;;;;;5036831;28;20538;-72
2021/01/18 11:51:54;;;;;;;17.85;8.43;;;0.00;99.90;;;;;;5038013;28;20194;-73
2021/01/18 11:54:20;;;;;;;14.75;7.78;;;0.00;99.90;;;;;;5018018;28;20201;-73
2021/01/18 11:56:46;;;;;;;18.77;8.65;;;0.00;99.90;;;;;;5037428;28;20569;-73
2021/01/18 11:59:12;;;;;;;19.65;8.45;;;0.00;99.90;;;;;;5041333;28;20202;-72
2021/01/18 12:01:42;;;;;;;18.70;8.23;;;0.00;99.90;;;;;;5039200;28;20221;-72
2021/01/18 12:04:08;;;;;;;20.52;8.65;;;0.00;99.90;;;;;;5025009;28;20210;-73
2021/01/18 12:06:38;;;;;;;15.68;8.18;;;0.00;99.90;;;;;;5014971;28;20226;-73
2021/01/18 12:09:05;;;;;;;17.63;8.45;;;0.00;99.90;;;;;;5036904;28;20193;-73
2021/01/18 12:11:36;;;;;;;19.65;8.52;;;0.00;99.90;;;;;;5029896;28;20202;-73
2021/01/18 12:14:02;;;;;;;16.92;8.55;;;0.00;99.90;;;;;;5037545;28;20192;-74
2021/01/18 12:16:28;;;;;;;18.83;8.82;;;0.00;99.90;;;;;;5034979;28;20201;-72
2021/01/18 12:18:54;;;;;;;17.50;7.93;;;0.00;99.90;;;;;;5024951;28;20205;-72
2021/01/18 12:21:20;;;;;;;19.15;8.30;;;0.00;99.90;;;;;;5037396;28;20209;-71
2021/01/18 12:23:47;;;;;;;24.30;8.18;;;0.00;99.90;;;;;;5036799;28;20206;-73
2021/01/18 12:26:18;;;;;;;23.17;9.10;;;-0.10;99.90;;;;;;5021113;28;20194;-73
2021/01/18 12:28:45;;;;;;;20.40;8.90;;;-0.10;99.90;;;;;;5019829;28;20650;-73
2021/01/18 12:31:12;;;;;;;18.92;8.40;;;-0.10;99.90;;;;;;5037128;28;20209;-73
2021/01/18 12:33:38;;;;;;;20.20;8.60;;;-0.10;99.90;;;;;;5035059;28;20197;-72
2021/01/18 12:36:04;;;;;;;19.17;8.88;;;-0.20;99.90;;;;;;5033507;28;20200;-73
2021/01/18 12:38:30;;;;;;;25.75;9.25;;;-0.20;99.90;;;;;;5039097;28;20201;-73
2021/01/18 12:40:56;;;;;;;18.75;9.15;;;-0.20;99.90;;;;;;5040715;28;21026;-73
2021/01/18 12:43:21;;;;;;;21.65;9.57;;;-0.20;99.90;;;;;;5040972;28;20205;-73
2021/01/18 12:45:47;;;;;;;21.02;9.10;;;-0.20;99.90;;;;;;5037793;28;20757;-72
2021/01/18 12:48:14;;;;;;;18.23;8.82;;;-0.20;99.90;;;;;;5030398;28;20210;-73
2021/01/18 12:50:40;;;;;;;19.27;8.90;;;-0.30;99.90;;;;;;5031424;28;20651;-72
2021/01/18 12:53:08;;;;;;;18.08;9.00;;;-0.30;99.90;;;;;;5035470;28;20228;-72
2021/01/18 12:55:34;;;;;;;19.98;9.57;;;-0.30;99.90;;;;;;5035583;28;20675;-72
2021/01/18 12:58:01;;;;;;;20.17;9.43;;;-0.30;99.90;;;;;;5035407;28;20275;-73